sensor_id;sensor_type;location;lat;lon;timestamp;pressure;altitude;pressure_sealevel;temperature;humidity
74327;BME280;62745;51.060;13.786;2024-02-23T00:00:27;97508.50;;;10.78;100.00
74327;BME280;62745;51.060;13.786;2024-02-23T00:02:53;97511.69;;;10.75;100.00
74327;BME280;62745;51.060;13.786;2024-02-23T00:05:22;97515.19;;;10.75;100.00
74327;BME280;62745;51.060;13.786;2024-02-23T00:07:49;97525.06;;;10.80;100.00
74327;BME280;62745;51.060;13.786;2024-02-23T00:10:15;97533.09;;;10.80;100.00
74327;BME280;62745;51.060;13.786;2024-02-23T00:12:43;97523.22;;;10.91;100.00
74327;BME280;62745;51.060;13.786;2024-02-23T00:15:13;97528.56;;;10.91;100.00
74327;BME280;62745;51.060;13.786;2024-02-23T00:17:40;97520.63;;;11.01;100.00
74327;BME280;62745;51.060;13.786;2024-02-23T00:20:08;97521.16;;;11.03;100.00
74327;BME280;62745;51.060;13.786;2024-02-23T00:22:37;97531.56;;;11.04;100.00
74327;BME280;62745;51.060;13.786;2024-02-23T00:25:04;97532.63;;;11.03;100.00
74327;BME280;62745;51.060;13.786;2024-02-23T00:27:31;97538.28;;;11.12;100.00
74327;BME280;62745;51.060;13.786;2024-02-23T00:29:57;97531.84;;;11.08;100.00
74327;BME280;62745;51.060;13.786;2024-02-23T00:32:24;97544.44;;;11.12;100.00
74327;BME280;62745;51.060;13.786;2024-02-23T00:34:50;97544.19;;;11.14;100.00
74327;BME280;62745;51.060;13.786;2024-02-23T00:37:17;97544.44;;;11.12;100.00
74327;BME280;62745;51.060;13.786;2024-02-23T00:39:44;97543.66;;;11.12;100.00
74327;BME280;62745;51.060;13.786;2024-02-23T00:42:10;97542.81;;;11.06;100.00
74327;BME280;62745;51.060;13.786;2024-02-23T00:44:36;97540.13;;;11.01;100.00
74327;BME280;62745;51.060;13.786;2024-02-23T00:47:03;97520.56;;;10.91;100.00
74327;BME280;62745;51.060;13.786;2024-02-23T00:49:30;97520.81;;;10.89;100.00
74327;BME280;62745;51.060;13.786;2024-02-23T00:51:57;97523.47;;;10.84;100.00
74327;BME280;62745;51.060;13.786;2024-02-23T00:54:23;97520.81;;;10.84;100.00
74327;BME280;62745;51.060;13.786;2024-02-23T00:56:50;97524.09;;;11.01;99.39
74327;BME280;62745;51.060;13.786;2024-02-23T00:59:20;97526.78;;;11.06;100.00
74327;BME280;62745;51.060;13.786;2024-02-23T01:01:47;97526.50;;;11.03;100.00
74327;BME280;62745;51.060;13.786;2024-02-23T01:04:14;97518.72;;;10.96;100.00
74327;BME280;62745;51.060;13.786;2024-02-23T01:06:40;97511.06;;;11.25;93.98
74327;BME280;62745;51.060;13.786;2024-02-23T01:09:07;97506.84;;;11.44;88.31
74327;BME280;62745;51.060;13.786;2024-02-23T01:11:33;97513.81;;;11.66;84.61
74327;BME280;62745;51.060;13.786;2024-02-23T01:14:00;97528.84;;;12.13;79.78
74327;BME280;62745;51.060;13.786;2024-02-23T01:16:27;97539.53;;;12.18;78.90
74327;BME280;62745;51.060;13.786;2024-02-23T01:18:53;97549.44;;;12.27;78.13
74327;BME280;62745;51.060;13.786;2024-02-23T01:21:20;97544.63;;;12.29;77.72
74327;BME280;62745;51.060;13.786;2024-02-23T01:23:46;97562.03;;;12.32;77.62
74327;BME280;62745;51.060;13.786;2024-02-23T01:26:13;97564.97;;;12.30;77.51
74327;BME280;62745;51.060;13.786;2024-02-23T01:28:40;97574.59;;;12.37;77.37
74327;BME280;62745;51.060;13.786;2024-02-23T01:31:09;97581.03;;;12.35;77.50
74327;BME280;62745;51.060;13.786;2024-02-23T01:33:39;97592.28;;;12.27;77.60
74327;BME280;62745;51.060;13.786;2024-02-23T01:36:07;97581.28;;;12.24;77.70
74327;BME280;62745;51.060;13.786;2024-02-23T01:38:34;97604.03;;;12.42;75.17
74327;BME280;62745;51.060;13.786;2024-02-23T01:41:01;97613.69;;;12.32;76.27
74327;BME280;62745;51.060;13.786;2024-02-23T01:43:27;97624.66;;;12.31;76.14
74327;BME280;62745;51.060;13.786;2024-02-23T01:45:54;97638.03;;;12.41;75.31
74327;BME280;62745;51.060;13.786;2024-02-23T01:48:20;97627.31;;;12.41;74.49
74327;BME280;62745;51.060;13.786;2024-02-23T01:50:48;97639.91;;;12.51;72.88
74327;BME280;62745;51.060;13.786;2024-02-23T01:53:15;97636.19;;;12.47;72.75
74327;BME280;62745;51.060;13.786;2024-02-23T01:55:42;97641.25;;;12.53;71.57
74327;BME280;62745;51.060;13.786;2024-02-23T01:58:10;97645.00;;;12.52;72.58
74327;BME280;62745;51.060;13.786;2024-02-23T02:00:36;97645.53;;;12.49;71.68
74327;BME280;62745;51.060;13.786;2024-02-23T02:03:03;97652.22;;;12.57;70.66
74327;BME280;62745;51.060;13.786;2024-02-23T02:05:36;97670.97;;;12.57;70.96
74327;BME280;62745;51.060;13.786;2024-02-23T02:08:04;97688.41;;;12.44;71.39
74327;BME280;62745;51.060;13.786;2024-02-23T02:10:31;97691.34;;;12.48;70.87
74327;BME280;62745;51.060;13.786;2024-02-23T02:13:05;97671.53;;;12.49;69.92
74327;BME280;62745;51.060;13.786;2024-02-23T02:15:32;97689.47;;;12.43;69.99
74327;BME280;62745;51.060;13.786;2024-02-23T02:17:58;97697.50;;;12.43;70.03
74327;BME280;62745;51.060;13.786;2024-02-23T02:20:25;97696.66;;;12.43;71.10
74327;BME280;62745;51.060;13.786;2024-02-23T02:22:54;97710.84;;;12.33;70.91
74327;BME280;62745;51.060;13.786;2024-02-23T02:25:23;97713.81;;;12.31;70.87
74327;BME280;62745;51.060;13.786;2024-02-23T02:27:50;97720.75;;;12.27;71.02
74327;BME280;62745;51.060;13.786;2024-02-23T02:30:16;97727.69;;;12.23;69.76
74327;BME280;62745;51.060;13.786;2024-02-23T02:32:43;97729.56;;;12.18;68.71
74327;BME280;62745;51.060;13.786;2024-02-23T02:35:25;97729.03;;;12.11;69.31
74327;BME280;62745;51.060;13.786;2024-02-23T02:38:11;97729.78;;;12.06;68.81
74327;BME280;62745;51.060;13.786;2024-02-23T02:40:38;97732.47;;;12.01;68.92
74327;BME280;62745;51.060;13.786;2024-02-23T02:43:05;97745.84;;;12.01;67.57
74327;BME280;62745;51.060;13.786;2024-02-23T02:45:31;97724.97;;;11.93;68.16
74327;BME280;62745;51.060;13.786;2024-02-23T02:48:00;97741.53;;;11.95;67.68
74327;BME280;62745;51.060;13.786;2024-02-23T02:50:27;97739.94;;;11.94;67.48
74327;BME280;62745;51.060;13.786;2024-02-23T02:53:10;97752.47;;;11.88;68.31
74327;BME280;62745;51.060;13.786;2024-02-23T02:55:42;97757.00;;;11.83;67.89
74327;BME280;62745;51.060;13.786;2024-02-23T02:58:17;97754.78;;;11.74;67.60
74327;BME280;62745;51.060;13.786;2024-02-23T03:00:43;97773.50;;;11.74;68.77
74327;BME280;62745;51.060;13.786;2024-02-23T03:03:10;97795.94;;;11.68;68.56
74327;BME280;62745;51.060;13.786;2024-02-23T03:05:41;97794.31;;;11.62;68.81
74327;BME280;62745;51.060;13.786;2024-02-23T03:08:09;97794.59;;;11.66;68.14
74327;BME280;62745;51.060;13.786;2024-02-23T03:10:35;97816.78;;;11.61;68.03
74327;BME280;62745;51.060;13.786;2024-02-23T03:13:02;97801.22;;;11.53;68.94
74327;BME280;62745;51.060;13.786;2024-02-23T03:15:30;97803.06;;;11.53;67.44
74327;BME280;62745;51.060;13.786;2024-02-23T03:18:01;97805.72;;;11.48;67.13
74327;BME280;62745;51.060;13.786;2024-02-23T03:20:29;97819.88;;;11.43;67.37
74327;BME280;62745;51.060;13.786;2024-02-23T03:23:00;97824.09;;;11.39;67.48
74327;BME280;62745;51.060;13.786;2024-02-23T03:25:29;97821.94;;;11.36;67.54
74327;BME280;62745;51.060;13.786;2024-02-23T03:27:56;97822.72;;;11.31;68.22
74327;BME280;62745;51.060;13.786;2024-02-23T03:30:22;97844.31;;;11.25;68.39
74327;BME280;62745;51.060;13.786;2024-02-23T03:32:51;97842.44;;;11.25;68.02
74327;BME280;62745;51.060;13.786;2024-02-23T03:35:18;97850.69;;;11.19;67.68
74327;BME280;62745;51.060;13.786;2024-02-23T03:37:44;97858.91;;;11.12;67.79
74327;BME280;62745;51.060;13.786;2024-02-23T03:40:11;97858.84;;;11.07;68.52
74327;BME280;62745;51.060;13.786;2024-02-23T03:42:41;97859.38;;;11.04;68.37
74327;BME280;62745;51.060;13.786;2024-02-23T03:45:12;97879.59;;;10.95;69.25
74327;BME280;62745;51.060;13.786;2024-02-23T03:47:42;97881.47;;;10.94;68.32
74327;BME280;62745;51.060;13.786;2024-02-23T03:50:10;97899.03;;;10.90;68.34
74327;BME280;62745;51.060;13.786;2024-02-23T03:52:54;97912.38;;;10.90;68.26
74327;BME280;62745;51.060;13.786;2024-02-23T03:55:21;97925.16;;;10.83;68.35
74327;BME280;62745;51.060;13.786;2024-02-23T03:57:50;97923.97;;;10.74;67.95
74327;BME280;62745;51.060;13.786;2024-02-23T04:00:20;97948.44;;;10.66;69.32
74327;BME280;62745;51.060;13.786;2024-02-23T04:02:49;97950.94;;;10.50;69.02
74327;BME280;62745;51.060;13.786;2024-02-23T04:05:15;97954.03;;;10.42;68.19
74327;BME280;62745;51.060;13.786;2024-02-23T04:07:42;97978.41;;;10.29;65.21
74327;BME280;62745;51.060;13.786;2024-02-23T04:10:09;97998.19;;;10.16;63.85
74327;BME280;62745;51.060;13.786;2024-02-23T04:12:41;98036.53;;;10.10;61.02
74327;BME280;62745;51.060;13.786;2024-02-23T04:15:08;98015.19;;;10.10;60.04
74327;BME280;62745;51.060;13.786;2024-02-23T04:17:34;98018.25;;;10.02;57.89
74327;BME280;62745;51.060;13.786;2024-02-23T04:20:06;98037.72;;;10.03;56.92
74327;BME280;62745;51.060;13.786;2024-02-23T04:22:33;98007.28;;;9.99;56.37
74327;BME280;62745;51.060;13.786;2024-02-23T04:25:00;98014.16;;;9.94;55.74
74327;BME280;62745;51.060;13.786;2024-02-23T04:27:26;98010.56;;;9.89;56.66
74327;BME280;62745;51.060;13.786;2024-02-23T04:29:56;98022.28;;;9.88;56.42
74327;BME280;62745;51.060;13.786;2024-02-23T04:32:26;98009.50;;;9.90;57.39
74327;BME280;62745;51.060;13.786;2024-02-23T04:34:53;98015.59;;;9.85;57.50
74327;BME280;62745;51.060;13.786;2024-02-23T04:37:20;98030.03;;;9.89;57.69
74327;BME280;62745;51.060;13.786;2024-02-23T04:39:46;98020.78;;;9.92;56.50
74327;BME280;62745;51.060;13.786;2024-02-23T04:42:13;98028.91;;;9.85;57.56
74327;BME280;62745;51.060;13.786;2024-02-23T04:44:41;98029.91;;;9.79;57.93
74327;BME280;62745;51.060;13.786;2024-02-23T04:47:08;98037.81;;;9.74;58.80
74327;BME280;62745;51.060;13.786;2024-02-23T04:49:35;98043.78;;;9.64;59.53
74327;BME280;62745;51.060;13.786;2024-02-23T04:52:05;98054.09;;;9.61;60.36
74327;BME280;62745;51.060;13.786;2024-02-23T04:54:32;98054.72;;;9.51;60.77
74327;BME280;62745;51.060;13.786;2024-02-23T04:57:01;98072.81;;;9.49;60.67
74327;BME280;62745;51.060;13.786;2024-02-23T04:59:28;98078.06;;;9.44;61.32
74327;BME280;62745;51.060;13.786;2024-02-23T05:02:00;98073.66;;;9.38;61.15
74327;BME280;62745;51.060;13.786;2024-02-23T05:04:30;98084.81;;;9.35;61.38
74327;BME280;62745;51.060;13.786;2024-02-23T05:06:56;98105.78;;;9.31;62.04
74327;BME280;62745;51.060;13.786;2024-02-23T05:09:33;98115.88;;;9.29;62.08
74327;BME280;62745;51.060;13.786;2024-02-23T05:12:01;98123.28;;;9.27;63.11
74327;BME280;62745;51.060;13.786;2024-02-23T05:14:30;98125.38;;;9.25;63.06
74327;BME280;62745;51.060;13.786;2024-02-23T05:17:00;98121.31;;;9.23;63.41
74327;BME280;62745;51.060;13.786;2024-02-23T05:19:26;98126.31;;;9.19;63.54
74327;BME280;62745;51.060;13.786;2024-02-23T05:21:53;98125.16;;;9.15;64.46
74327;BME280;62745;51.060;13.786;2024-02-23T05:24:19;98127.50;;;9.12;64.13
74327;BME280;62745;51.060;13.786;2024-02-23T05:26:46;98117.88;;;9.11;63.75
74327;BME280;62745;51.060;13.786;2024-02-23T05:29:13;98124.72;;;9.07;63.80
74327;BME280;62745;51.060;13.786;2024-02-23T05:31:48;98117.44;;;9.02;64.31
74327;BME280;62745;51.060;13.786;2024-02-23T05:34:15;98136.41;;;9.05;63.79
74327;BME280;62745;51.060;13.786;2024-02-23T05:36:42;98136.63;;;9.04;64.53
74327;BME280;62745;51.060;13.786;2024-02-23T05:39:12;98133.97;;;9.04;64.27
74327;BME280;62745;51.060;13.786;2024-02-23T05:41:39;98142.44;;;9.01;64.92
74327;BME280;62745;51.060;13.786;2024-02-23T05:44:05;98130.16;;;9.00;64.12
74327;BME280;62745;51.060;13.786;2024-02-23T05:46:33;98137.94;;;9.01;63.95
74327;BME280;62745;51.060;13.786;2024-02-23T05:49:00;98131.44;;;8.97;62.22
74327;BME280;62745;51.060;13.786;2024-02-23T05:51:31;98154.84;;;8.95;62.20
74327;BME280;62745;51.060;13.786;2024-02-23T05:53:57;98143.16;;;8.96;61.67
74327;BME280;62745;51.060;13.786;2024-02-23T05:56:24;98137.94;;;8.90;61.41
74327;BME280;62745;51.060;13.786;2024-02-23T05:58:51;98159.22;;;8.90;61.57
74327;BME280;62745;51.060;13.786;2024-02-23T06:01:18;98170.34;;;8.87;60.48
74327;BME280;62745;51.060;13.786;2024-02-23T06:03:45;98177.19;;;8.83;60.89
74327;BME280;62745;51.060;13.786;2024-02-23T06:06:12;98178.69;;;8.79;60.45
74327;BME280;62745;51.060;13.786;2024-02-23T06:08:38;98177.66;;;8.80;59.78
74327;BME280;62745;51.060;13.786;2024-02-23T06:11:05;98192.47;;;8.76;59.61
74327;BME280;62745;51.060;13.786;2024-02-23T06:13:32;98200.09;;;8.72;60.35
74327;BME280;62745;51.060;13.786;2024-02-23T06:15:59;98211.44;;;8.67;60.05
74327;BME280;62745;51.060;13.786;2024-02-23T06:18:26;98204.03;;;8.69;60.19
74327;BME280;62745;51.060;13.786;2024-02-23T06:20:52;98211.19;;;8.69;60.59
74327;BME280;62745;51.060;13.786;2024-02-23T06:23:19;98206.81;;;8.63;60.98
74327;BME280;62745;51.060;13.786;2024-02-23T06:25:45;98220.00;;;8.58;60.63
74327;BME280;62745;51.060;13.786;2024-02-23T06:28:13;98230.41;;;8.59;61.14
74327;BME280;62745;51.060;13.786;2024-02-23T06:30:39;98230.31;;;8.78;63.32
74327;BME280;62745;51.060;13.786;2024-02-23T06:33:05;98229.03;;;8.80;64.18
74327;BME280;62745;51.060;13.786;2024-02-23T06:35:32;98232.75;;;8.79;63.95
74327;BME280;62745;51.060;13.786;2024-02-23T06:37:58;98231.94;;;8.79;60.74
74327;BME280;62745;51.060;13.786;2024-02-23T06:40:25;98223.25;;;8.83;63.35
74327;BME280;62745;51.060;13.786;2024-02-23T06:43:06;98228.00;;;8.81;61.80
74327;BME280;62745;51.060;13.786;2024-02-23T06:45:32;98233.44;;;8.86;63.04
74327;BME280;62745;51.060;13.786;2024-02-23T06:47:59;98240.38;;;8.87;62.32
74327;BME280;62745;51.060;13.786;2024-02-23T06:50:25;98235.28;;;8.86;65.11
74327;BME280;62745;51.060;13.786;2024-02-23T06:52:52;98246.63;;;8.81;63.24
74327;BME280;62745;51.060;13.786;2024-02-23T06:55:18;98252.00;;;8.93;63.78
74327;BME280;62745;51.060;13.786;2024-02-23T06:57:46;98239.25;;;8.95;62.79
74327;BME280;62745;51.060;13.786;2024-02-23T07:00:13;98248.16;;;9.00;64.07
74327;BME280;62745;51.060;13.786;2024-02-23T07:02:40;98249.31;;;8.93;62.59
74327;BME280;62745;51.060;13.786;2024-02-23T07:05:07;98234.25;;;8.87;63.88
74327;BME280;62745;51.060;13.786;2024-02-23T07:07:34;98233.22;;;8.88;62.71
74327;BME280;62745;51.060;13.786;2024-02-23T07:10:01;98234.25;;;8.98;63.34
74327;BME280;62745;51.060;13.786;2024-02-23T07:12:28;98230.56;;;9.11;65.27
74327;BME280;62745;51.060;13.786;2024-02-23T07:14:55;98233.22;;;8.99;61.55
74327;BME280;62745;51.060;13.786;2024-02-23T07:17:22;98240.06;;;8.95;64.07
74327;BME280;62745;51.060;13.786;2024-02-23T07:19:49;98257.75;;;8.90;63.68
74327;BME280;62745;51.060;13.786;2024-02-23T07:22:17;98255.09;;;8.90;63.22
74327;BME280;62745;51.060;13.786;2024-02-23T07:24:49;98261.25;;;8.90;63.31
74327;BME280;62745;51.060;13.786;2024-02-23T07:27:16;98274.41;;;8.85;63.49
74327;BME280;62745;51.060;13.786;2024-02-23T07:29:42;98280.69;;;8.91;63.70
74327;BME280;62745;51.060;13.786;2024-02-23T07:32:09;98270.03;;;8.91;64.13
74327;BME280;62745;51.060;13.786;2024-02-23T07:34:36;98280.47;;;8.92;63.06
74327;BME280;62745;51.060;13.786;2024-02-23T07:37:03;98291.94;;;8.93;63.64
74327;BME280;62745;51.060;13.786;2024-02-23T07:39:30;98289.94;;;8.88;63.46
74327;BME280;62745;51.060;13.786;2024-02-23T07:41:56;98293.63;;;8.87;63.32
74327;BME280;62745;51.060;13.786;2024-02-23T07:44:23;98301.06;;;8.97;63.08
74327;BME280;62745;51.060;13.786;2024-02-23T07:46:51;98304.44;;;9.04;63.65
74327;BME280;62745;51.060;13.786;2024-02-23T07:49:21;98300.03;;;8.98;62.67
74327;BME280;62745;51.060;13.786;2024-02-23T07:51:48;98311.25;;;9.00;63.32
74327;BME280;62745;51.060;13.786;2024-02-23T07:54:15;98318.66;;;8.98;62.91
74327;BME280;62745;51.060;13.786;2024-02-23T07:56:41;98322.25;;;9.03;63.17
74327;BME280;62745;51.060;13.786;2024-02-23T07:59:08;98328.53;;;9.09;63.68
74327;BME280;62745;51.060;13.786;2024-02-23T08:01:34;98335.47;;;8.98;63.26
74327;BME280;62745;51.060;13.786;2024-02-23T08:04:01;98346.00;;;8.93;62.32
74327;BME280;62745;51.060;13.786;2024-02-23T08:06:27;98360.25;;;8.99;62.57
74327;BME280;62745;51.060;13.786;2024-02-23T08:08:54;98359.16;;;8.88;62.81
74327;BME280;62745;51.060;13.786;2024-02-23T08:11:21;98366.50;;;8.93;62.69
74327;BME280;62745;51.060;13.786;2024-02-23T08:13:48;98353.00;;;8.76;62.28
74327;BME280;62745;51.060;13.786;2024-02-23T08:16:18;98364.41;;;8.65;61.72
74327;BME280;62745;51.060;13.786;2024-02-23T08:18:44;98353.50;;;8.55;62.08
74327;BME280;62745;51.060;13.786;2024-02-23T08:21:11;98360.94;;;8.64;62.92
74327;BME280;62745;51.060;13.786;2024-02-23T08:23:38;98358.00;;;8.54;62.83
74327;BME280;62745;51.060;13.786;2024-02-23T08:26:05;98350.41;;;8.58;62.09
74327;BME280;62745;51.060;13.786;2024-02-23T08:28:32;98343.47;;;8.57;62.90
74327;BME280;62745;51.060;13.786;2024-02-23T08:30:58;98338.34;;;8.55;62.13
74327;BME280;62745;51.060;13.786;2024-02-23T08:33:25;98334.72;;;8.50;63.29
74327;BME280;62745;51.060;13.786;2024-02-23T08:35:51;98340.88;;;8.50;62.96
74327;BME280;62745;51.060;13.786;2024-02-23T08:38:18;98342.00;;;8.42;62.26
74327;BME280;62745;51.060;13.786;2024-02-23T08:40:45;98334.59;;;8.44;62.54
74327;BME280;62745;51.060;13.786;2024-02-23T08:43:13;98338.53;;;8.42;63.51
74327;BME280;62745;51.060;13.786;2024-02-23T08:45:39;98336.47;;;8.44;63.23
74327;BME280;62745;51.060;13.786;2024-02-23T08:48:06;98346.88;;;8.46;63.17
74327;BME280;62745;51.060;13.786;2024-02-23T08:50:33;98332.53;;;8.47;63.38
74327;BME280;62745;51.060;13.786;2024-02-23T08:53:00;98339.38;;;8.54;63.31
74327;BME280;62745;51.060;13.786;2024-02-23T08:55:27;98343.94;;;8.65;63.03
74327;BME280;62745;51.060;13.786;2024-02-23T08:57:53;98334.84;;;8.55;63.10
74327;BME280;62745;51.060;13.786;2024-02-23T09:00:20;98344.28;;;8.69;63.47
74327;BME280;62745;51.060;13.786;2024-02-23T09:02:46;98355.41;;;8.66;63.24
74327;BME280;62745;51.060;13.786;2024-02-23T09:05:13;98361.94;;;8.82;63.35
74327;BME280;62745;51.060;13.786;2024-02-23T09:07:39;98371.00;;;8.92;61.93
74327;BME280;62745;51.060;13.786;2024-02-23T09:10:08;98363.97;;;9.10;61.84
74327;BME280;62745;51.060;13.786;2024-02-23T09:12:35;98376.16;;;9.29;60.67
74327;BME280;62745;51.060;13.786;2024-02-23T09:15:01;98378.03;;;9.52;60.45
74327;BME280;62745;51.060;13.786;2024-02-23T09:17:28;98376.19;;;9.41;59.44
74327;BME280;62745;51.060;13.786;2024-02-23T09:19:54;98389.75;;;9.51;59.10
74327;BME280;62745;51.060;13.786;2024-02-23T09:22:21;98386.25;;;9.74;58.37
74327;BME280;62745;51.060;13.786;2024-02-23T09:24:47;98390.69;;;9.68;58.92
74327;BME280;62745;51.060;13.786;2024-02-23T09:27:14;98396.47;;;9.65;59.17
74327;BME280;62745;51.060;13.786;2024-02-23T09:29:41;98403.41;;;9.43;59.41
74327;BME280;62745;51.060;13.786;2024-02-23T09:32:08;98409.00;;;9.76;59.45
74327;BME280;62745;51.060;13.786;2024-02-23T09:34:35;98406.09;;;9.78;59.08
74327;BME280;62745;51.060;13.786;2024-02-23T09:37:01;98399.84;;;9.95;59.17
74327;BME280;62745;51.060;13.786;2024-02-23T09:39:28;98403.66;;;10.11;56.71
74327;BME280;62745;51.060;13.786;2024-02-23T09:41:56;98402.69;;;10.06;59.09
74327;BME280;62745;51.060;13.786;2024-02-23T09:44:23;98412.03;;;9.91;57.59
74327;BME280;62745;51.060;13.786;2024-02-23T09:46:49;98401.00;;;9.64;57.13
74327;BME280;62745;51.060;13.786;2024-02-23T09:49:16;98401.81;;;9.77;58.08
74327;BME280;62745;51.060;13.786;2024-02-23T09:51:43;98402.38;;;9.67;58.18
74327;BME280;62745;51.060;13.786;2024-02-23T09:54:10;98388.47;;;10.00;57.95
74327;BME280;62745;51.060;13.786;2024-02-23T09:56:37;98387.22;;;9.91;58.28
74327;BME280;62745;51.060;13.786;2024-02-23T09:59:04;98391.47;;;10.04;57.51
74327;BME280;62745;51.060;13.786;2024-02-23T10:01:32;98387.84;;;10.33;56.07
74327;BME280;62745;51.060;13.786;2024-02-23T10:04:03;98374.72;;;10.43;56.42
74327;BME280;62745;51.060;13.786;2024-02-23T10:06:31;98384.50;;;10.66;56.48
74327;BME280;62745;51.060;13.786;2024-02-23T10:08:58;98379.06;;;10.61;56.27
74327;BME280;62745;51.060;13.786;2024-02-23T10:11:25;98383.88;;;10.36;57.26
74327;BME280;62745;51.060;13.786;2024-02-23T10:13:54;98389.13;;;10.19;55.92
74327;BME280;62745;51.060;13.786;2024-02-23T10:16:21;98401.19;;;10.33;55.58
74327;BME280;62745;51.060;13.786;2024-02-23T10:18:48;98394.69;;;10.17;54.67
74327;BME280;62745;51.060;13.786;2024-02-23T10:21:16;98413.88;;;10.26;55.72
74327;BME280;62745;51.060;13.786;2024-02-23T10:23:45;98412.13;;;10.08;56.14
74327;BME280;62745;51.060;13.786;2024-02-23T10:26:13;98411.56;;;9.94;54.92
74327;BME280;62745;51.060;13.786;2024-02-23T10:28:45;98409.69;;;10.30;55.30
74327;BME280;62745;51.060;13.786;2024-02-23T10:31:12;98420.91;;;10.20;54.99
74327;BME280;62745;51.060;13.786;2024-02-23T10:33:39;98422.78;;;9.85;56.08
74327;BME280;62745;51.060;13.786;2024-02-23T10:36:07;98433.22;;;9.63;56.84
74327;BME280;62745;51.060;13.786;2024-02-23T10:38:38;98443.41;;;9.66;56.78
74327;BME280;62745;51.060;13.786;2024-02-23T10:41:06;98447.25;;;9.58;56.53
74327;BME280;62745;51.060;13.786;2024-02-23T10:43:47;98444.69;;;9.63;56.62
74327;BME280;62745;51.060;13.786;2024-02-23T10:46:14;98454.69;;;9.80;56.08
74327;BME280;62745;51.060;13.786;2024-02-23T10:48:42;98447.50;;;9.80;55.58
74327;BME280;62745;51.060;13.786;2024-02-23T10:51:10;98451.22;;;9.91;55.56
74327;BME280;62745;51.060;13.786;2024-02-23T10:53:40;98444.59;;;9.93;55.90
74327;BME280;62745;51.060;13.786;2024-02-23T10:56:07;98438.19;;;9.48;55.37
74327;BME280;62745;51.060;13.786;2024-02-23T10:58:34;98452.13;;;9.61;57.04
74327;BME280;62745;51.060;13.786;2024-02-23T11:01:06;98450.63;;;9.77;55.23
74327;BME280;62745;51.060;13.786;2024-02-23T11:03:35;98477.28;;;9.77;55.96
74327;BME280;62745;51.060;13.786;2024-02-23T11:06:06;98467.53;;;9.59;54.90
74327;BME280;62745;51.060;13.786;2024-02-23T11:08:33;98481.00;;;9.88;54.41
74327;BME280;62745;51.060;13.786;2024-02-23T11:11:09;98489.94;;;10.05;54.44
74327;BME280;62745;51.060;13.786;2024-02-23T11:13:38;98487.59;;;10.20;52.89
74327;BME280;62745;51.060;13.786;2024-02-23T11:16:05;98486.00;;;10.08;51.92
74327;BME280;62745;51.060;13.786;2024-02-23T11:18:36;98493.94;;;10.26;51.51
74327;BME280;62745;51.060;13.786;2024-02-23T11:21:05;98485.56;;;10.34;51.01
74327;BME280;62745;51.060;13.786;2024-02-23T11:23:47;98492.75;;;10.34;50.17
74327;BME280;62745;51.060;13.786;2024-02-23T11:26:14;98483.94;;;10.33;50.25
74327;BME280;62745;51.060;13.786;2024-02-23T11:28:51;98485.31;;;10.47;50.68
74327;BME280;62745;51.060;13.786;2024-02-23T11:31:22;98492.59;;;10.52;49.85
74327;BME280;62745;51.060;13.786;2024-02-23T11:33:54;98488.06;;;10.64;50.10
74327;BME280;62745;51.060;13.786;2024-02-23T11:36:27;98495.16;;;10.00;50.55
74327;BME280;62745;51.060;13.786;2024-02-23T11:38:56;98474.06;;;10.45;51.01
74327;BME280;62745;51.060;13.786;2024-02-23T11:41:24;98468.72;;;9.99;50.67
74327;BME280;62745;51.060;13.786;2024-02-23T11:43:52;98472.06;;;10.06;50.50
74327;BME280;62745;51.060;13.786;2024-02-23T11:46:19;98457.56;;;10.02;50.80
74327;BME280;62745;51.060;13.786;2024-02-23T11:48:46;98464.66;;;10.31;50.31
74327;BME280;62745;51.060;13.786;2024-02-23T11:51:14;98457.81;;;10.23;49.97
74327;BME280;62745;51.060;13.786;2024-02-23T11:53:41;98466.72;;;10.06;50.41
74327;BME280;62745;51.060;13.786;2024-02-23T11:56:08;98469.88;;;10.14;50.43
74327;BME280;62745;51.060;13.786;2024-02-23T11:58:35;98478.91;;;10.02;50.48
74327;BME280;62745;51.060;13.786;2024-02-23T12:01:02;98484.59;;;10.05;49.48
74327;BME280;62745;51.060;13.786;2024-02-23T12:03:29;98475.22;;;10.14;50.37
74327;BME280;62745;51.060;13.786;2024-02-23T12:05:57;98477.63;;;10.04;50.64
74327;BME280;62745;51.060;13.786;2024-02-23T12:08:25;98473.94;;;10.17;50.55
74327;BME280;62745;51.060;13.786;2024-02-23T12:10:56;98481.44;;;10.55;50.68
74327;BME280;62745;51.060;13.786;2024-02-23T12:13:23;98477.69;;;10.28;49.50
74327;BME280;62745;51.060;13.786;2024-02-23T12:15:52;98472.91;;;10.41;49.99
74327;BME280;62745;51.060;13.786;2024-02-23T12:18:22;98474.94;;;10.63;49.67
74327;BME280;62745;51.060;13.786;2024-02-23T12:21:06;98476.19;;;10.72;49.64
74327;BME280;62745;51.060;13.786;2024-02-23T12:26:06;98489.78;;;11.10;47.84
74327;BME280;62745;51.060;13.786;2024-02-23T12:28:33;98475.81;;;11.08;48.17
74327;BME280;62745;51.060;13.786;2024-02-23T12:31:01;98478.56;;;10.97;47.75
74327;BME280;62745;51.060;13.786;2024-02-23T12:33:28;98468.00;;;11.19;48.16
74327;BME280;62745;51.060;13.786;2024-02-23T12:35:59;98468.28;;;11.34;46.97
74327;BME280;62745;51.060;13.786;2024-02-23T12:38:25;98471.53;;;11.36;46.83
74327;BME280;62745;51.060;13.786;2024-02-23T12:40:52;98456.72;;;11.62;45.95
74327;BME280;62745;51.060;13.786;2024-02-23T12:43:19;98454.91;;;11.79;46.64
74327;BME280;62745;51.060;13.786;2024-02-23T12:45:54;98451.19;;;12.19;44.88
74327;BME280;62745;51.060;13.786;2024-02-23T12:48:21;98447.41;;;11.48;44.76
74327;BME280;62745;51.060;13.786;2024-02-23T12:50:48;98451.56;;;11.89;44.59
74327;BME280;62745;51.060;13.786;2024-02-23T12:53:39;98445.66;;;11.25;45.09
74327;BME280;62745;51.060;13.786;2024-02-23T12:56:07;98461.59;;;10.91;45.68
74327;BME280;62745;51.060;13.786;2024-02-23T12:58:38;98458.19;;;11.53;44.61
74327;BME280;62745;51.060;13.786;2024-02-23T13:01:05;98457.78;;;11.44;44.08